createdAt,value
2023-04-14T00:02:04.492Z,100649.94
2023-04-14T00:04:31.539Z,100648.22
2023-04-14T00:06:59.860Z,100654.13
2023-04-14T00:09:26.285Z,100649.69
2023-04-14T00:11:52.584Z,100647.97
2023-04-14T00:14:19.113Z,100645.41
2023-04-14T00:16:46.263Z,100643.72
2023-04-14T00:19:12.806Z,100651.44
2023-04-14T00:21:39.074Z,100643.59
2023-04-14T00:24:05.588Z,100650.47
2023-04-14T00:26:32.952Z,100653.13
2023-04-14T00:28:59.432Z,100657.38
2023-04-14T00:31:26.069Z,100665.94
2023-04-14T00:33:52.394Z,100662.50
2023-04-14T00:36:18.682Z,100665.94
2023-04-14T00:38:44.968Z,100664.19
2023-04-14T00:41:11.276Z,100671.91
2023-04-14T00:43:37.573Z,100677.03
2023-04-14T00:46:04.092Z,100677.94
2023-04-14T00:48:30.554Z,100681.28
2023-04-14T00:50:56.930Z,100677.72
2023-04-14T00:53:23.838Z,100682.75
2023-04-14T00:55:50.419Z,100677.63
2023-04-14T00:58:16.847Z,100678.47
2023-04-14T01:00:43.203Z,100686.25
2023-04-14T01:03:09.768Z,100683.63
2023-04-14T01:05:36.258Z,100681.91
2023-04-14T01:08:03.804Z,100688.81
2023-04-14T01:10:37.868Z,100687.97
2023-04-14T01:13:41.665Z,100688.88
2023-04-14T01:16:30.347Z,100685.44
2023-04-14T01:19:24.320Z,100686.34
2023-04-14T01:22:06.691Z,100682.84
2023-04-14T01:25:04.112Z,100677.50
2023-04-14T01:27:43.731Z,100677.53
2023-04-14T01:30:20.625Z,100686.88
2023-04-14T01:32:49.835Z,100688.59
2023-04-14T01:35:26.794Z,100687.66
2023-04-14T01:37:58.242Z,100691.94
2023-04-14T01:40:28.117Z,100681.66
2023-04-14T01:43:03.853Z,100687.66
2023-04-14T01:45:36.639Z,100689.16
2023-04-14T01:48:04.961Z,100684.00
2023-04-14T01:50:32.707Z,100687.41
2023-04-14T01:53:01.063Z,100691.56
2023-04-14T01:55:29.271Z,100689.03
2023-04-14T01:57:57.461Z,100700.13
2023-04-14T02:00:25.532Z,100696.59
2023-04-14T02:02:53.683Z,100695.75
2023-04-14T02:05:21.976Z,100700.03
2023-04-14T02:07:51.292Z,100705.31
2023-04-14T02:10:20.501Z,100710.41
2023-04-14T02:12:49.593Z,100702.50
2023-04-14T02:15:18.509Z,100699.78
2023-04-14T02:17:48.247Z,100691.16
2023-04-14T02:20:15.287Z,100698.78
2023-04-14T02:22:41.813Z,100698.69
2023-04-14T02:25:08.974Z,100704.47
2023-04-14T02:27:39.618Z,100704.59
2023-04-14T02:30:12.452Z,100708.88
2023-04-14T02:32:44.989Z,100709.97
2023-04-14T02:35:16.637Z,100713.22
2023-04-14T02:37:47.489Z,100715.56
2023-04-14T02:40:20.172Z,100717.41
2023-04-14T02:42:52.748Z,100724.31
2023-04-14T02:45:26.323Z,100717.44
2023-04-14T02:47:55.839Z,100719.25
2023-04-14T02:50:23.829Z,100727.81
2023-04-14T02:52:52.497Z,100720.84
2023-04-14T02:55:20.717Z,100725.97
2023-04-14T02:57:48.221Z,100726.84
2023-04-14T03:00:15.148Z,100730.16
2023-04-14T03:02:43.540Z,100726.06
2023-04-14T03:05:10.733Z,100726.69
2023-04-14T03:07:37.819Z,100724.25
2023-04-14T03:10:05.462Z,100723.25
2023-04-14T03:12:34.855Z,100722.34
2023-04-14T03:15:02.586Z,100730.13
2023-04-14T03:17:30.835Z,100735.25
2023-04-14T03:19:57.418Z,100730.97
2023-04-14T03:22:26.992Z,100729.22
2023-04-14T03:24:58.014Z,100734.34
2023-04-14T03:27:29.937Z,100730.97
2023-04-14T03:30:01.541Z,100731.81
2023-04-14T03:32:35.730Z,100731.16
2023-04-14T03:35:03.083Z,100735.50
2023-04-14T03:37:33.389Z,100737.25
2023-04-14T03:40:05.639Z,100736.22
2023-04-14T03:42:35.385Z,100738.63
2023-04-14T03:45:03.469Z,100733.28
2023-04-14T03:47:31.650Z,100741.66
2023-04-14T03:50:01.181Z,100744.22
2023-04-14T03:52:31.061Z,100745.75
2023-04-14T03:55:03.259Z,100751.81
2023-04-14T03:57:32.628Z,100750.09
2023-04-14T04:00:01.697Z,100752.50
2023-04-14T04:02:30.273Z,100750.97
2023-04-14T04:04:58.989Z,100754.28
2023-04-14T04:07:27.245Z,100759.69
2023-04-14T04:09:56.475Z,100746.72
2023-04-14T04:12:24.100Z,100747.47
2023-04-14T04:14:50.411Z,100749.19
2023-04-14T04:17:19.585Z,100748.34
2023-04-14T04:19:48.303Z,100757.88
2023-04-14T04:22:17.625Z,100751.81
2023-04-14T04:24:45.426Z,100757.81
2023-04-14T04:27:24.341Z,100755.88
2023-04-14T04:29:53.664Z,100760.03
2023-04-14T04:32:20.951Z,100766.22
2023-04-14T04:34:49.504Z,100765.41
2023-04-14T04:37:16.987Z,100761.75
2023-04-14T04:39:43.352Z,100756.63
2023-04-14T04:42:09.718Z,100764.59
2023-04-14T04:44:36.413Z,100764.66
2023-04-14T04:47:03.667Z,100762.09
2023-04-14T04:49:29.993Z,100771.78
2023-04-14T04:51:59.708Z,100771.72
2023-04-14T04:54:27.095Z,100769.97
2023-04-14T04:56:53.770Z,100766.59
2023-04-14T04:59:20.065Z,100764.13
2023-04-14T05:01:46.547Z,100760.75
2023-04-14T05:04:12.940Z,100768.38
2023-04-14T05:06:39.527Z,100756.38
2023-04-14T05:09:06.528Z,100763.56
2023-04-14T05:11:35.140Z,100765.44
2023-04-14T05:14:02.316Z,100761.16
2023-04-14T05:16:29.760Z,100756.97
2023-04-14T05:18:56.328Z,100759.72
2023-04-14T05:21:22.978Z,100756.50
2023-04-14T05:23:49.575Z,100758.25
2023-04-14T05:28:46.118Z,100757.53
2023-04-14T05:31:12.448Z,100764.34
2023-04-14T05:33:39.854Z,100762.75
2023-04-14T05:36:06.969Z,100765.56
2023-04-14T05:38:36.307Z,100767.41
2023-04-14T05:41:02.622Z,100766.69
2023-04-14T05:43:28.906Z,100760.94
2023-04-14T05:45:58.130Z,100765.34
2023-04-14T05:48:27.451Z,100765.50
2023-04-14T05:50:53.706Z,100769.88
2023-04-14T05:53:20.012Z,100765.66
2023-04-14T05:55:47.740Z,100777.75
2023-04-14T05:58:14.745Z,100764.81
2023-04-14T06:00:41.072Z,100771.00
2023-04-14T06:03:08.384Z,100769.22
2023-04-14T06:05:35.409Z,100768.34
2023-04-14T06:08:01.742Z,100770.94
2023-04-14T06:10:28.202Z,100771.03
2023-04-14T06:12:54.492Z,100776.34
2023-04-14T06:15:20.856Z,100773.94
2023-04-14T06:17:48.251Z,100779.22
2023-04-14T06:20:14.723Z,100772.41
2023-04-14T06:22:41.148Z,100777.72
2023-04-14T06:25:07.836Z,100777.88
2023-04-14T06:27:34.142Z,100779.63
2023-04-14T06:30:00.938Z,100779.75
2023-04-14T06:32:27.310Z,100780.72
2023-04-14T06:34:53.683Z,100785.97
2023-04-14T06:37:20.036Z,100779.09
2023-04-14T06:39:46.604Z,100778.31
2023-04-14T06:42:13.177Z,100780.09
2023-04-14T06:44:40.391Z,100780.97
2023-04-14T06:47:08.161Z,100774.94
2023-04-14T06:49:34.621Z,100777.56
2023-04-14T06:52:00.944Z,100776.69
2023-04-14T06:54:27.294Z,100775.84
2023-04-14T06:56:53.630Z,100770.69
2023-04-14T06:59:21.384Z,100780.19
2023-04-14T07:01:47.805Z,100769.81
2023-04-14T07:04:15.292Z,100773.28
2023-04-14T07:06:41.660Z,100768.94
2023-04-14T07:09:07.984Z,100775.00
2023-04-14T07:11:34.285Z,100772.38
2023-04-14T07:14:00.926Z,100768.03
2023-04-14T07:16:27.545Z,100767.97
2023-04-14T07:18:53.852Z,100769.69
2023-04-14T07:21:20.145Z,100768.75
2023-04-14T07:23:46.403Z,100771.34
2023-04-14T07:26:12.749Z,100766.22
2023-04-14T07:28:39.036Z,100759.31
2023-04-14T07:31:09.366Z,100749.78
2023-04-14T07:33:35.968Z,100759.19
2023-04-14T07:36:04.776Z,100753.97
2023-04-14T07:38:32.969Z,100754.78
2023-04-14T07:41:01.341Z,100757.28
2023-04-14T07:43:27.780Z,100765.03
2023-04-14T07:45:54.169Z,100759.00
2023-04-14T07:48:21.372Z,100766.63
2023-04-14T07:50:49.820Z,100760.50
2023-04-14T07:53:16.282Z,100757.03
2023-04-14T07:55:42.668Z,100750.91
2023-04-14T07:58:08.942Z,100750.88
2023-04-14T08:00:35.635Z,100746.47
2023-04-14T08:03:02.135Z,100741.31
2023-04-14T08:05:28.638Z,100738.53
2023-04-14T08:07:55.014Z,100745.28
2023-04-14T08:10:21.481Z,100739.13
2023-04-14T08:12:47.771Z,100743.16
2023-04-14T08:15:14.326Z,100746.59
2023-04-14T08:17:40.881Z,100738.03
2023-04-14T08:20:08.150Z,100744.16
2023-04-14T08:22:34.862Z,100743.31
2023-04-14T08:25:01.267Z,100747.56
2023-04-14T08:27:27.640Z,100747.56
2023-04-14T08:29:54.721Z,100746.31
2023-04-14T08:32:21.085Z,100752.25
2023-04-14T08:35:38.739Z,100747.94
2023-04-14T08:37:34.367Z,100746.06
2023-04-14T08:40:00.941Z,100742.53
2023-04-14T08:42:27.341Z,100751.09
2023-04-14T08:44:53.720Z,100745.88
2023-04-14T08:47:22.133Z,100747.59
2023-04-14T08:50:12.966Z,100741.63
2023-04-14T08:52:41.547Z,100744.00
2023-04-14T08:55:09.746Z,100744.94
2023-04-14T08:57:36.592Z,100741.72
2023-04-14T09:00:04.824Z,100741.44
2023-04-14T09:02:34.942Z,100735.44
2023-04-14T09:05:02.126Z,100743.78
2023-04-14T09:07:30.323Z,100749.69
2023-04-14T09:09:57.532Z,100736.63
2023-04-14T09:12:27.278Z,100741.50
2023-04-14T09:14:54.865Z,100735.41
2023-04-14T09:17:24.007Z,100724.06
2023-04-14T09:20:36.434Z,100734.75
2023-04-14T09:22:36.844Z,100726.31
2023-04-14T09:25:04.917Z,100724.06
2023-04-14T09:27:31.282Z,100727.19
2023-04-14T09:29:59.304Z,100729.50
2023-04-14T09:32:25.893Z,100739.66
2023-04-14T09:34:55.535Z,100738.84
2023-04-14T09:37:24.048Z,100731.03
2023-04-14T09:39:51.569Z,100738.41
2023-04-14T09:42:18.973Z,100744.34
2023-04-14T09:44:54.230Z,100742.44
2023-04-14T09:47:22.463Z,100750.44
2023-04-14T09:49:59.935Z,100754.91
2023-04-14T09:52:44.541Z,100761.50
2023-04-14T09:55:15.466Z,100750.16
2023-04-14T09:57:43.545Z,100743.53
2023-04-14T10:00:15.903Z,100750.25
2023-04-14T10:02:57.894Z,100743.88
2023-04-14T10:05:31.080Z,100738.72
2023-04-14T10:08:03.666Z,100744.88
2023-04-14T10:10:29.954Z,100750.16
2023-04-14T10:12:56.373Z,100747.38
2023-04-14T10:15:23.054Z,100742.44
2023-04-14T10:17:49.400Z,100741.75
2023-04-14T10:20:16.372Z,100743.56
2023-04-14T10:22:43.079Z,100739.31
2023-04-14T10:25:09.983Z,100746.28
2023-04-14T10:27:37.178Z,100739.47
2023-04-14T10:30:05.881Z,100726.13
2023-04-14T10:32:35.246Z,100730.16
2023-04-14T10:35:12.101Z,100722.50
2023-04-14T10:37:38.682Z,100720.78
2023-04-14T10:40:07.150Z,100720.00
2023-04-14T10:42:56.221Z,100712.88
2023-04-14T10:45:22.705Z,100708.16
2023-04-14T10:47:49.884Z,100708.78
2023-04-14T10:50:20.516Z,100707.38
2023-04-14T10:52:58.792Z,100705.53
2023-04-14T10:55:26.890Z,100703.72
2023-04-14T10:58:04.062Z,100700.13
2023-04-14T11:00:32.242Z,100696.22
2023-04-14T11:03:10.353Z,100695.13
2023-04-14T11:05:43.051Z,100697.59
2023-04-14T11:08:14.736Z,100694.16
2023-04-14T11:10:42.616Z,100691.00
2023-04-14T11:13:12.234Z,100701.13
2023-04-14T11:15:44.764Z,100696.06
2023-04-14T11:18:14.528Z,100701.84
2023-04-14T11:20:43.639Z,100698.59
2023-04-14T11:23:14.393Z,100701.66
2023-04-14T11:25:41.200Z,100697.47
2023-04-14T11:28:07.895Z,100701.00
2023-04-14T11:30:34.208Z,100704.16
2023-04-14T11:33:00.667Z,100703.53
2023-04-14T11:35:28.571Z,100701.56
2023-04-14T11:37:56.134Z,100697.09
2023-04-14T11:40:23.671Z,100704.88
2023-04-14T11:42:55.420Z,100698.75
2023-04-14T11:45:21.927Z,100700.53
2023-04-14T11:48:03.204Z,100700.50
2023-04-14T11:50:32.517Z,100697.09
2023-04-14T11:53:03.012Z,100700.50
2023-04-14T11:55:29.864Z,100703.19
2023-04-14T11:57:57.033Z,100700.50
2023-04-14T12:00:24.466Z,100698.22
2023-04-14T12:02:51.512Z,100694.84
2023-04-14T12:05:21.822Z,100695.44
2023-04-14T12:07:49.489Z,100688.50
2023-04-14T12:10:17.383Z,100692.81
2023-04-14T12:12:43.773Z,100689.38
2023-04-14T12:15:11.617Z,100684.91
2023-04-14T12:17:38.427Z,100685.13
2023-04-14T12:20:05.518Z,100695.34
2023-04-14T12:22:31.888Z,100696.09
2023-04-14T12:24:58.360Z,100705.72
2023-04-14T12:27:26.607Z,100696.69
2023-04-14T12:29:53.079Z,100695.00
2023-04-14T12:32:21.938Z,100700.19
2023-04-14T12:34:58.311Z,100692.16
2023-04-14T12:37:29.016Z,100693.53
2023-04-14T12:39:59.502Z,100697.19
2023-04-14T12:42:42.987Z,100684.88
2023-04-14T12:45:10.473Z,100684.25
2023-04-14T12:47:36.854Z,100691.47
2023-04-14T12:50:23.316Z,100686.97
2023-04-14T12:52:49.806Z,100686.06
2023-04-14T12:55:24.412Z,100682.19
2023-04-14T12:57:52.984Z,100675.28
2023-04-14T13:00:24.122Z,100671.28
2023-04-14T13:02:53.545Z,100673.22
2023-04-14T13:05:19.873Z,100669.41
2023-04-14T13:07:48.891Z,100668.06
2023-04-14T13:10:15.798Z,100663.06
2023-04-14T13:12:42.409Z,100671.72
2023-04-14T13:15:09.354Z,100658.53
2023-04-14T13:17:55.856Z,100654.66
2023-04-14T13:20:22.237Z,100653.69
2023-04-14T13:22:48.840Z,100656.13
2023-04-14T13:25:15.343Z,100654.28
2023-04-14T13:27:41.625Z,100647.97
2023-04-14T13:30:08.812Z,100642.56
2023-04-14T13:32:35.260Z,100628.56
2023-04-14T13:35:01.710Z,100621.56
2023-04-14T13:37:28.064Z,100616.34
2023-04-14T13:39:54.420Z,100612.97
2023-04-14T13:42:20.726Z,100615.72
2023-04-14T13:44:47.470Z,100612.59
2023-04-14T13:47:13.766Z,100616.28
2023-04-14T13:49:40.068Z,100611.19
2023-04-14T13:52:06.765Z,100612.91
2023-04-14T13:54:35.097Z,100614.50
2023-04-14T13:57:01.475Z,100610.28
2023-04-14T13:59:27.938Z,100614.75
2023-04-14T14:01:54.353Z,100612.41
2023-04-14T14:04:20.777Z,100617.84
2023-04-14T14:06:47.316Z,100610.84
2023-04-14T14:09:13.617Z,100604.97
2023-04-14T14:11:44.035Z,100605.13
2023-04-14T14:14:12.682Z,100600.44
2023-04-14T14:16:39.091Z,100591.38
2023-04-14T14:19:07.960Z,100599.16
2023-04-14T14:21:34.457Z,100597.94
2023-04-14T14:24:00.968Z,100604.41
2023-04-14T14:26:27.657Z,100599.06
2023-04-14T14:28:54.045Z,100609.63
2023-04-14T14:31:20.406Z,100607.22
2023-04-14T14:33:46.698Z,100604.69
2023-04-14T14:36:14.901Z,100614.38
2023-04-14T14:38:41.244Z,100624.47
2023-04-14T14:41:07.631Z,100612.50
2023-04-14T14:43:33.933Z,100603.22
2023-04-14T14:46:01.572Z,100617.41
2023-04-14T14:48:28.071Z,100613.81
2023-04-14T14:50:54.453Z,100607.69
2023-04-14T14:53:20.692Z,100612.09
2023-04-14T14:55:47.211Z,100610.28
2023-04-14T14:58:13.607Z,100610.03
2023-04-14T15:00:39.937Z,100602.53
2023-04-14T15:03:06.668Z,100598.31
2023-04-14T15:05:33.372Z,100603.38
2023-04-14T15:07:59.710Z,100611.97
2023-04-14T15:10:26.474Z,100610.22
2023-04-14T15:12:53.956Z,100603.53
2023-04-14T15:15:20.748Z,100604.84
2023-04-14T15:17:47.110Z,100612.34
2023-04-14T15:20:14.239Z,100613.22
2023-04-14T15:22:40.508Z,100612.81
2023-04-14T15:25:08.911Z,100607.84
2023-04-14T15:27:35.416Z,100608.75
2023-04-14T15:30:01.796Z,100607.41
2023-04-14T15:32:28.131Z,100605.66
2023-04-14T15:34:55.276Z,100599.31
2023-04-14T15:37:21.778Z,100601.88
2023-04-14T15:39:48.159Z,100605.66
2023-04-14T15:42:14.421Z,100609.47
2023-04-14T15:44:40.720Z,100605.03
2023-04-14T15:47:07.061Z,100611.44
2023-04-14T15:49:33.381Z,100602.91
2023-04-14T15:51:59.722Z,100603.19
2023-04-14T15:54:26.702Z,100602.47
2023-04-14T15:56:53.243Z,100600.59
2023-04-14T15:59:21.045Z,100605.75
2023-04-14T16:01:47.530Z,100607.34
2023-04-14T16:04:14.071Z,100606.09
2023-04-14T16:06:40.614Z,100608.47
2023-04-14T16:09:07.091Z,100614.19
2023-04-14T16:11:36.302Z,100610.94
2023-04-14T16:14:03.024Z,100603.44
2023-04-14T16:16:29.633Z,100606.00
2023-04-14T16:18:56.153Z,100605.06
2023-04-14T16:21:22.488Z,100611.84
2023-04-14T16:23:48.809Z,100605.88
2023-04-14T16:26:15.975Z,100603.38
2023-04-14T16:28:42.763Z,100608.69
2023-04-14T16:31:09.297Z,100612.53
2023-04-14T16:33:35.663Z,100605.56
2023-04-14T16:36:02.958Z,100603.78
2023-04-14T16:38:29.731Z,100603.84
2023-04-14T16:40:57.294Z,100603.03
2023-04-14T16:43:24.595Z,100604.06
2023-04-14T16:45:53.963Z,100605.91
2023-04-14T16:48:20.313Z,100611.19
2023-04-14T16:50:49.271Z,100603.75
2023-04-14T16:53:15.712Z,100608.38
2023-04-14T16:55:42.744Z,100614.59
2023-04-14T16:58:09.664Z,100618.06
2023-04-14T17:00:37.055Z,100622.41
2023-04-14T17:03:03.535Z,100623.16
2023-04-14T17:05:30.178Z,100618.88
2023-04-14T17:07:57.058Z,100619.06
2023-04-14T17:10:23.439Z,100631.38
2023-04-14T17:12:49.719Z,100620.31
2023-04-14T17:15:17.042Z,100630.19
2023-04-14T17:17:43.700Z,100638.91
2023-04-14T17:20:12.230Z,100637.16
2023-04-14T17:22:38.614Z,100630.44
2023-04-14T17:25:06.394Z,100627.06
2023-04-14T17:27:33.024Z,100628.03
2023-04-14T17:29:59.340Z,100635.06
2023-04-14T17:32:26.927Z,100630.81
2023-04-14T17:34:53.607Z,100634.38
2023-04-14T17:37:20.041Z,100639.66
2023-04-14T17:39:48.952Z,100637.97
2023-04-14T17:42:15.635Z,100648.28
2023-04-14T17:44:42.159Z,100648.41
2023-04-14T17:47:15.066Z,100646.78
2023-04-14T17:49:42.714Z,100637.22
2023-04-14T17:52:09.774Z,100640.66
2023-04-14T17:54:36.718Z,100645.00
2023-04-14T17:57:04.155Z,100639.00
2023-04-14T17:59:30.928Z,100652.00
2023-04-14T18:01:57.313Z,100652.06
2023-04-14T18:04:23.900Z,100665.16
2023-04-14T18:06:50.862Z,100666.03
2023-04-14T18:09:17.580Z,100665.16
2023-04-14T18:11:43.879Z,100665.19
2023-04-14T18:14:10.458Z,100676.31
2023-04-14T18:16:37.284Z,100672.00
2023-04-14T18:19:04.652Z,100671.94
2023-04-14T18:21:30.952Z,100676.34
2023-04-14T18:26:26.964Z,100685.06
2023-04-14T18:28:53.554Z,100692.88
2023-04-14T18:31:19.867Z,100684.41
2023-04-14T18:33:46.293Z,100691.28
2023-04-14T18:36:12.621Z,100702.56
2023-04-14T18:38:38.956Z,100695.56
2023-04-14T18:41:05.630Z,100688.56
2023-04-14T18:43:33.082Z,100693.94
2023-04-14T18:45:59.951Z,100695.78
2023-04-14T18:48:26.448Z,100689.78
2023-04-14T18:51:01.896Z,100688.94
2023-04-14T18:53:28.754Z,100681.97
2023-04-14T18:55:55.171Z,100685.41
2023-04-14T18:58:21.708Z,100686.31
2023-04-14T19:00:48.399Z,100684.72
2023-04-14T19:03:15.204Z,100689.84
2023-04-14T19:05:42.081Z,100691.66
2023-04-14T19:08:08.425Z,100689.06
2023-04-14T19:10:36.094Z,100692.53
2023-04-14T19:13:02.435Z,100697.72
2023-04-14T19:15:29.230Z,100696.84
2023-04-14T19:17:55.876Z,100690.75
2023-04-14T19:20:23.937Z,100690.84
2023-04-14T19:22:50.462Z,100689.13
2023-04-14T19:25:17.121Z,100684.75
2023-04-14T19:27:43.822Z,100688.22
2023-04-14T19:30:10.696Z,100684.78
2023-04-14T19:32:37.050Z,100677.88
2023-04-14T19:35:07.068Z,100686.44
2023-04-14T19:37:48.968Z,100688.09
2023-04-14T19:40:15.931Z,100689.81
2023-04-14T19:42:42.235Z,100685.38
2023-04-14T19:45:10.105Z,100681.94
2023-04-14T19:47:37.396Z,100685.50
2023-04-14T19:50:04.205Z,100688.16
2023-04-14T19:52:30.485Z,100686.47
2023-04-14T19:54:57.312Z,100690.78
2023-04-14T19:57:23.854Z,100687.44
2023-04-14T19:59:50.225Z,100690.16
2023-04-14T20:02:18.445Z,100680.56
2023-04-14T20:04:46.534Z,100686.72
2023-04-14T20:07:12.894Z,100683.25
2023-04-14T20:09:45.393Z,100680.59
2023-04-14T20:12:12.714Z,100678.84
2023-04-14T20:14:40.197Z,100684.88
2023-04-14T20:17:06.631Z,100678.03
2023-04-14T20:19:32.982Z,100679.75
2023-04-14T20:21:59.258Z,100672.81
2023-04-14T20:24:25.568Z,100665.94
2023-04-14T20:26:51.854Z,100664.06
2023-04-14T20:29:18.389Z,100672.75
2023-04-14T20:31:44.807Z,100671.03
2023-04-14T20:34:11.978Z,100667.56
2023-04-14T20:36:38.237Z,100657.22
2023-04-14T20:39:05.716Z,100659.84
2023-04-14T20:41:33.192Z,100655.56
2023-04-14T20:43:59.475Z,100662.50
2023-04-14T20:46:25.849Z,100666.84
2023-04-14T20:48:52.213Z,100666.81
2023-04-14T20:51:19.109Z,100661.63
2023-04-14T20:53:45.889Z,100664.09
2023-04-14T20:56:12.215Z,100654.66
2023-04-14T20:58:38.619Z,100655.56
2023-04-14T21:01:05.081Z,100654.72
2023-04-14T21:03:34.238Z,100658.19
2023-04-14T21:06:01.461Z,100655.59
2023-04-14T21:08:28.700Z,100658.19
2023-04-14T21:11:16.111Z,100662.47
2023-04-14T21:15:29.188Z,100659.03
2023-04-14T21:16:28.295Z,100656.53
2023-04-14T21:18:54.814Z,100656.47
2023-04-14T21:21:21.362Z,100659.94
2023-04-14T21:23:47.669Z,100655.66
2023-04-14T21:26:13.985Z,100657.41
2023-04-14T21:28:41.472Z,100653.06
2023-04-14T21:31:07.966Z,100658.28
2023-04-14T21:33:34.312Z,100659.19
2023-04-14T21:36:01.756Z,100659.19
2023-04-14T21:38:28.226Z,100654.81
2023-04-14T21:40:54.585Z,100666.97
2023-04-14T21:43:21.048Z,100660.03
2023-04-14T21:45:47.504Z,100663.50
2023-04-14T21:48:13.974Z,100657.44
2023-04-14T21:50:40.557Z,100665.19
2023-04-14T21:53:06.853Z,100665.19
2023-04-14T21:55:33.223Z,100660.88
2023-04-14T21:58:01.007Z,100664.31
2023-04-14T22:00:27.772Z,100659.16
2023-04-14T22:02:54.288Z,100655.66
2023-04-14T22:05:21.077Z,100654.78
2023-04-14T22:07:47.386Z,100650.41
2023-04-14T22:10:14.579Z,100648.72
2023-04-14T22:12:42.259Z,100652.25
2023-04-14T22:15:10.154Z,100648.84
2023-04-14T22:17:38.445Z,100648.03
2023-04-14T22:20:06.014Z,100651.47
2023-04-14T22:22:32.966Z,100648.06
2023-04-14T22:24:59.978Z,100655.00
2023-04-14T22:27:26.584Z,100655.84
2023-04-14T22:29:53.805Z,100653.25
2023-04-14T22:32:20.116Z,100650.69
2023-04-14T22:34:46.616Z,100650.69
2023-04-14T22:37:13.140Z,100646.34
2023-04-14T22:39:39.783Z,100654.16
2023-04-14T22:42:06.259Z,100654.13
2023-04-14T22:44:32.598Z,100655.88
2023-04-14T22:46:59.058Z,100655.03
2023-04-14T22:49:25.351Z,100655.91
2023-04-14T22:51:51.756Z,100652.44
2023-04-14T22:54:18.048Z,100649.00
2023-04-14T22:56:44.439Z,100648.97
2023-04-14T22:59:10.780Z,100648.97
2023-04-14T23:01:37.378Z,100657.63
2023-04-14T23:04:03.820Z,100651.63
2023-04-14T23:06:30.294Z,100651.63
2023-04-14T23:08:56.918Z,100645.56
2023-04-14T23:11:23.395Z,100643.84
2023-04-14T23:13:50.556Z,100638.66
2023-04-14T23:16:19.908Z,100641.25
2023-04-14T23:18:51.582Z,100636.09
2023-04-14T23:21:20.499Z,100648.16
2023-04-14T23:23:46.787Z,100639.50
2023-04-14T23:26:13.155Z,100633.50
2023-04-14T23:28:39.545Z,100633.50
2023-04-14T23:31:06.329Z,100636.94
2023-04-14T23:33:32.734Z,100631.75
2023-04-14T23:35:59.159Z,100636.06
2023-04-14T23:38:25.705Z,100633.50
2023-04-14T23:40:52.000Z,100636.06
2023-04-14T23:43:18.321Z,100630.88
2023-04-14T23:45:44.613Z,100630.88
2023-04-14T23:48:11.311Z,100621.38
2023-04-14T23:50:58.974Z,100615.34
2023-04-14T23:53:25.252Z,100617.91
2023-04-14T23:55:51.726Z,100609.31
2023-04-14T23:58:26.300Z,100610.19
